F/V Kersatao — FHQJ — position and weather

sailwx.info

Track history (hours):
 
Tides and Currents Weather Stations Pressure Air Temp Water Temp Dewpoint Dewpoint Depression Visibility Wind Speed Wind Dir Waves Ship Positions

F/V Kersatao

Last reported at 2018-Feb-19 05:29 UTC. Time now 2018-Feb-19 05:32 UTC.
Position N 47°11' W 002°40'.

Length 21 m.

Type: Other ship. MMSI: 227879000.

Date/timePositionNaut miles runAvg speedWind from/ knotsBaromVisibWave heightAir tempDewpointWater temp
2018-Feb-19 05:29N 47°11' W 002°40'5 9.3
2018-Feb-19 05:00N 47°15' W 002°37'5 9.3
2018-Feb-19 04:30N 47°19' W 002°34'2 4.0
2018-Feb-19 03:55N 47°18' W 002°31'0 0.0
2018-Feb-17 22:46N 47°18' W 002°31'0 0.0
2018-Feb-17 22:30N 47°18' W 002°31'0 0.0
2018-Feb-17 22:00N 47°18' W 002°31'0 0.0
2018-Feb-17 21:30N 47°18' W 002°31'0 0.0
2018-Feb-17 21:01N 47°18' W 002°31'0 0.0
2018-Feb-17 20:28N 47°18' W 002°31'0 0.0
2018-Feb-17 19:58N 47°18' W 002°31'0 0.0
2018-Feb-17 19:30N 47°18' W 002°31'0 0.0
2018-Feb-17 18:58N 47°18' W 002°31'0 0.0
2018-Feb-17 18:16N 47°18' W 002°31'0 0.0
2018-Feb-17 18:00N 47°18' W 002°31'0 0.0
2018-Feb-17 17:30N 47°18' W 002°31'0 0.0
2018-Feb-17 17:00N 47°18' W 002°31'0 0.0
2018-Feb-17 16:30N 47°18' W 002°31'0 0.0
2018-Feb-17 16:00N 47°18' W 002°31'0 0.0
2018-Feb-17 15:29N 47°18' W 002°31'0 0.0
2018-Feb-17 14:59N 47°18' W 002°31'0 0.0
2018-Feb-17 14:30N 47°18' W 002°31'0 0.0
2018-Feb-17 14:00N 47°18' W 002°31'0 0.0
2018-Feb-17 10:05N 47°18' W 002°31'0 0.0
2018-Feb-17 09:57N 47°18' W 002°31'0 0.0
2018-Feb-17 09:23N 47°18' W 002°31'0 0.0
2018-Feb-16 20:26N 47°18' W 002°31'0 0.0
2018-Feb-16 20:00N 47°18' W 002°31'0 0.0
2018-Feb-16 19:30N 47°18' W 002°31'0 0.0
2018-Feb-16 19:00N 47°18' W 002°31'6 6.7
2018-Feb-16 18:02N 47°19' W 002°40'0 9.3
2018-Feb-16 18:00N 47°19' W 002°41'5 9.8
2018-Feb-16 17:30N 47°16' W 002°47'6 3.8
2018-Feb-16 15:49N 47°14' W 002°55'1 2.7
2018-Feb-16 15:18N 47°12' W 002°55'1 3.0
2018-Feb-16 14:56N 47°12' W 002°56'6 2.4
2018-Feb-16 12:32N 47°07' W 002°59'0 2.3
2018-Feb-16 12:20N 47°07' W 002°59'1 2.3
2018-Feb-16 11:54N 47°08' W 002°58'1 2.4
2018-Feb-16 11:20N 47°08' W 002°56'3 2.0
2018-Feb-16 09:58N 47°07' W 002°53'1 2.6
2018-Feb-16 09:29N 47°05' W 002°53'4 2.5
2018-Feb-16 07:56N 47°09' W 002°56'9 2.5
2018-Feb-16 04:31N 47°01' W 002°51'0 2.5
2018-Feb-16 04:30N 47°01' W 002°51'2 2.4
2018-Feb-16 03:52N 47°00' W 002°49'1 1.9
2018-Feb-16 03:30N 46°60' W 002°50'6 2.1
2018-Feb-16 00:42N 47°04' W 002°55'1 2.6
2018-Feb-16 00:14N 47°06' W 002°56'1 2.7
2018-Feb-15 23:54N 47°06' W 002°57'1 2.7
2018-Feb-15 23:30N 47°07' W 002°58'1 1.1
2018-Feb-15 22:38N 47°06' W 002°57'0 2.8
2018-Feb-15 22:30N 47°06' W 002°57'1 2.7
2018-Feb-15 21:58N 47°06' W 002°55'3 1.1
2018-Feb-15 19:06N 47°07' W 002°59'1 2.9
2018-Feb-15 18:50N 47°08' W 002°58'2 0.7
2018-Feb-15 16:42N 47°06' W 002°59'1 2.1
2018-Feb-15 16:26N 47°07' W 002°58'1 2.6
2018-Feb-15 15:53N 47°08' W 002°57'1 2.5
2018-Feb-15 15:30N 47°08' W 002°56'2 1.1
2018-Feb-15 13:58N 47°07' W 002°57'2 2.3
2018-Feb-15 13:19N 47°08' W 002°55'1 2.5
2018-Feb-15 13:00N 47°08' W 002°54'1 1.9
2018-Feb-15 12:26N 47°09' W 002°53'1 2.4
2018-Feb-15 11:59N 47°09' W 002°52'2 0.3
2018-Feb-15 05:26N 47°10' W 002°49'5 9.0
2018-Feb-15 04:51N 47°13' W 002°42'3 9.4
2018-Feb-15 04:30N 47°14' W 002°38'4 8.4
2018-Feb-15 04:00N 47°18' W 002°35'2 4.9
2018-Feb-15 03:30N 47°18' W 002°31'0 0.5
2018-Feb-15 02:53N 47°18' W 002°31'0 0.0
2018-Feb-15 02:24N 47°18' W 002°31'0 0.2
2018-Feb-15 01:58N 47°18' W 002°31'0 0.0
2018-Feb-15 01:30N 47°18' W 002°31'3 6.2
2018-Feb-15 01:00N 47°17' W 002°35'  
2018-Feb-12 03:24N 47°10' W 002°43'3 8.8
2018-Feb-12 03:00N 47°12' W 002°40'5 9.1
2018-Feb-12 02:30N 47°16' W 002°36'4 8.5
2018-Feb-12 02:00N 47°19' W 002°32'1 2.4
2018-Feb-12 01:29N 47°18' W 002°31'0 0.0
2018-Feb-12 01:00N 47°18' W 002°31'  
Track history (hours):
 
Tides and Currents Weather Stations Pressure Air Temp Water Temp Dewpoint Dewpoint Depression Visibility Wind Speed Wind Dir Waves Ship Positions

F/V Kersatao

Last reported at 2018-Feb-19 05:29 UTC. Time now 2018-Feb-19 05:32 UTC.
Position N 47°11' W 002°40'.

Length 21 m.

Type: Other ship. MMSI: 227879000.

Date/timePositionNaut miles runAvg speedWind from/ knotsBaromVisibWave heightAir tempDewpointWater temp
2018-Feb-19 05:29N 47°11' W 002°40'5 9.3
2018-Feb-19 05:00N 47°15' W 002°37'5 9.3
2018-Feb-19 04:30N 47°19' W 002°34'2 4.0
2018-Feb-19 03:55N 47°18' W 002°31'0 0.0
2018-Feb-17 22:46N 47°18' W 002°31'0 0.0
2018-Feb-17 22:30N 47°18' W 002°31'0 0.0
2018-Feb-17 22:00N 47°18' W 002°31'0 0.0
2018-Feb-17 21:30N 47°18' W 002°31'0 0.0
2018-Feb-17 21:01N 47°18' W 002°31'0 0.0
2018-Feb-17 20:28N 47°18' W 002°31'0 0.0
2018-Feb-17 19:58N 47°18' W 002°31'0 0.0
2018-Feb-17 19:30N 47°18' W 002°31'0 0.0
2018-Feb-17 18:58N 47°18' W 002°31'0 0.0
2018-Feb-17 18:16N 47°18' W 002°31'0 0.0
2018-Feb-17 18:00N 47°18' W 002°31'0 0.0
2018-Feb-17 17:30N 47°18' W 002°31'0 0.0
2018-Feb-17 17:00N 47°18' W 002°31'0 0.0
2018-Feb-17 16:30N 47°18' W 002°31'0 0.0
2018-Feb-17 16:00N 47°18' W 002°31'0 0.0
2018-Feb-17 15:29N 47°18' W 002°31'0 0.0
2018-Feb-17 14:59N 47°18' W 002°31'0 0.0
2018-Feb-17 14:30N 47°18' W 002°31'0 0.0
2018-Feb-17 14:00N 47°18' W 002°31'0 0.0
2018-Feb-17 10:05N 47°18' W 002°31'0 0.0
2018-Feb-17 09:57N 47°18' W 002°31'0 0.0
2018-Feb-17 09:23N 47°18' W 002°31'0 0.0
2018-Feb-16 20:26N 47°18' W 002°31'0 0.0
2018-Feb-16 20:00N 47°18' W 002°31'0 0.0
2018-Feb-16 19:30N 47°18' W 002°31'0 0.0
2018-Feb-16 19:00N 47°18' W 002°31'6 6.7
2018-Feb-16 18:02N 47°19' W 002°40'0 9.3
2018-Feb-16 18:00N 47°19' W 002°41'5 9.8
2018-Feb-16 17:30N 47°16' W 002°47'6 3.8
2018-Feb-16 15:49N 47°14' W 002°55'1 2.7
2018-Feb-16 15:18N 47°12' W 002°55'1 3.0
2018-Feb-16 14:56N 47°12' W 002°56'6 2.4
2018-Feb-16 12:32N 47°07' W 002°59'0 2.3
2018-Feb-16 12:20N 47°07' W 002°59'1 2.3
2018-Feb-16 11:54N 47°08' W 002°58'1 2.4
2018-Feb-16 11:20N 47°08' W 002°56'3 2.0
2018-Feb-16 09:58N 47°07' W 002°53'1 2.6
2018-Feb-16 09:29N 47°05' W 002°53'4 2.5
2018-Feb-16 07:56N 47°09' W 002°56'9 2.5
2018-Feb-16 04:31N 47°01' W 002°51'0 2.5
2018-Feb-16 04:30N 47°01' W 002°51'2 2.4
2018-Feb-16 03:52N 47°00' W 002°49'1 1.9
2018-Feb-16 03:30N 46°60' W 002°50'6 2.1
2018-Feb-16 00:42N 47°04' W 002°55'1 2.6
2018-Feb-16 00:14N 47°06' W 002°56'1 2.7
2018-Feb-15 23:54N 47°06' W 002°57'1 2.7
2018-Feb-15 23:30N 47°07' W 002°58'1 1.1
2018-Feb-15 22:38N 47°06' W 002°57'0 2.8
2018-Feb-15 22:30N 47°06' W 002°57'1 2.7
2018-Feb-15 21:58N 47°06' W 002°55'3 1.1
2018-Feb-15 19:06N 47°07' W 002°59'1 2.9
2018-Feb-15 18:50N 47°08' W 002°58'2 0.7
2018-Feb-15 16:42N 47°06' W 002°59'1 2.1
2018-Feb-15 16:26N 47°07' W 002°58'1 2.6
2018-Feb-15 15:53N 47°08' W 002°57'1 2.5
2018-Feb-15 15:30N 47°08' W 002°56'2 1.1
2018-Feb-15 13:58N 47°07' W 002°57'2 2.3
2018-Feb-15 13:19N 47°08' W 002°55'1 2.5
2018-Feb-15 13:00N 47°08' W 002°54'1 1.9
2018-Feb-15 12:26N 47°09' W 002°53'1 2.4
2018-Feb-15 11:59N 47°09' W 002°52'2 0.3
2018-Feb-15 05:26N 47°10' W 002°49'5 9.0
2018-Feb-15 04:51N 47°13' W 002°42'3 9.4
2018-Feb-15 04:30N 47°14' W 002°38'4 8.4
2018-Feb-15 04:00N 47°18' W 002°35'2 4.9
2018-Feb-15 03:30N 47°18' W 002°31'0 0.5
2018-Feb-15 02:53N 47°18' W 002°31'0 0.0
2018-Feb-15 02:24N 47°18' W 002°31'0 0.2
2018-Feb-15 01:58N 47°18' W 002°31'0 0.0
2018-Feb-15 01:30N 47°18' W 002°31'3 6.2
2018-Feb-15 01:00N 47°17' W 002°35'  
2018-Feb-12 03:24N 47°10' W 002°43'3 8.8
2018-Feb-12 03:00N 47°12' W 002°40'5 9.1
2018-Feb-12 02:30N 47°16' W 002°36'4 8.5
2018-Feb-12 02:00N 47°19' W 002°32'1 2.4
2018-Feb-12 01:29N 47°18' W 002°31'0 0.0
2018-Feb-12 01:00N 47°18' W 002°31'  

Dump ship's entire track history